Sierra Nevada Aquatic Research Lab (SNARL) Reserve, Santa Monica Mtns, California Weather observations

Data are for 10 minute period ending at time listed.
 Day   Time   Solar   Ave.   Ave.  Ave.  Vector  Max.   Baro.   Total    
  of    of     Rad.   Air    Rel.  Wind   Wind   Wind  Press.  Precip.   
Year   Day            Temp.  Hum.  Speed  Dir.   Gust                    
2014   (PST)  Kw/m2    F      %     mph   deg.    mph    mb.     in.     
-------------------------------------------------------------------------
 238   14:20   0.81   75.4    19    4.8   341    10.4   785.9    0.00 
 238   14:30   0.81   75.4    20    4.0    40     9.0   785.9    0.00 
 238   14:40   0.14   74.5    18    3.3   239     6.9   785.9    0.00 
 238   14:50   0.66   73.2    19    5.2   278    14.8   785.9    0.00 
 238   15:00   0.73   74.9    19    4.4    40    10.3   785.9    0.00 
 238   15:10   0.52   74.9    19    4.7    49     9.2   785.9    0.00 
 238   15:20   0.54   74.2    19    3.5   360     7.5   785.9    0.00 
 238   15:30   0.46   74.3    19    5.9    94    12.6   785.9    0.00 
 238   15:40   0.58   75.3    19    3.3    63     8.6   785.8    0.00 
 238   15:50   0.41   75.2    18    4.5    56     9.3   785.8    0.00 
 238   16:00   0.19   73.7    18    2.3    68     7.5   785.8    0.00 
 238   16:10   0.18   72.4    20    2.5    63     6.0   785.9    0.00 
 238   16:20   0.24   72.9    19    2.4    77     4.5   785.9    0.00 
 238   16:30   0.10   71.7    22    4.3    65    12.6   786.0    0.00 
 238   16:40   0.10   70.4    22    6.5    98    10.9   786.0    0.00 
 238   16:50   0.08   70.3    20    7.1   108    10.4   786.0    0.00 
 238   17:00   0.14   70.7    21    5.7    93     8.9   786.1    0.00 
 238   17:10   0.18   71.2    22    3.7    83     6.6   786.0    0.00 
 238   17:20   0.23   72.8    20    3.7    88     7.2   786.1    0.00 
 238   17:30   0.21   73.1    21    3.8    77     7.5   786.1    0.00 
 238   17:40   0.18   73.1    20    3.2    91     7.0   786.1    0.00 
 238   17:50   0.14   73.2    21    2.4    53     6.4   786.2    0.00 
 238   18:00   0.10   72.2    22    3.8    35    10.0   786.4    0.00 
 238   18:10   0.06   70.3    25    5.2    10    14.1   786.6    0.00 
 238   18:20   0.03   68.0    27    4.2    23     9.8   786.7    0.00 
 238   18:30   0.01   66.6    28    2.0    38     5.8   786.9    0.00 
 238   18:40   0.00   64.9    31    0.6   333     2.3   787.0    0.00 
 238   18:50   0.00   62.0    34    1.9   306     4.5   787.0    0.00 
 238   19:00   0.00   60.4    35    3.2   293     6.7   787.1    0.00 
 238   19:10   0.00   60.2    33    2.6   292     5.0   787.2    0.00 
 238   19:20   0.00   59.9    33    2.8   265     5.7   787.4    0.00 
 238   19:30   0.00   58.4    35    4.2   202     6.4   787.5    0.00 
 238   19:40   0.00   57.7    37    1.8   209     3.2   787.6    0.00 
 238   19:50   0.00   55.8    40    2.6   224     5.1   787.6    0.00 
 238   20:00   0.00   54.9    41    5.1   255     6.9   787.7    0.00 
 238   20:10   0.00   56.0    40    5.9   262     7.6   787.7    0.00 
 238   20:20   0.00   57.5    37    5.8   267     8.1   787.8    0.00 
 238   20:30   0.00   57.8    35    5.9   267    10.3   787.9    0.00 
 238   20:40   0.00   58.1    34    6.1   273     9.8   788.1    0.00 
 238   20:50   0.00   58.2    34    6.1   273     9.3   788.1    0.00 
 238   21:00   0.00   58.0    34    6.4   266     9.9   788.2    0.00 
 238   21:10   0.00   57.6    34    6.3   257     8.2   788.4    0.00 
 238   21:20   0.00   57.4    34    7.0   267    12.1   788.5    0.00 
 238   21:30   0.00   57.4    34    6.0   270    10.4   788.6    0.00 
 238   21:40   0.00   56.5    35    6.6   254     9.1   788.7    0.00 
 238   21:50   0.00   55.8    35    6.3   257     9.1   788.8    0.00 
 238   22:00   0.00   55.5    36    5.1   281     9.9   788.8    0.00 
 238   22:10   0.00   55.7    36    5.6   269     8.8   788.8    0.00 
 238   22:20   0.00   54.9    36    6.2   259     8.3   788.8    0.00 
 238   22:30   0.00   55.4    35    6.3   260     9.9   788.8    0.00 
 238   22:40   0.00   55.8    34    7.2   260    10.2   788.8    0.00 
 238   22:50   0.00   55.6    35    7.0   257    11.6   788.8    0.00 
 238   23:00   0.00   55.9    34    6.3   259    10.2   788.8    0.00 
 238   23:10   0.00   56.3    34    4.7   270     7.7   789.0    0.00 
 238   23:20   0.00   52.6    38    2.4   126     5.0   789.0    0.00 
 238   23:30   0.00   48.5    44    0.6    17     2.6   789.0    0.00 
 238   23:40   0.00   47.4    47    0.6   240     3.0   789.0    0.00 
 238   23:50   0.00   46.5    48    1.2   105     2.6   789.2    0.00 
 239    0:00   0.00   46.2    49    1.5    14     3.1   789.4    0.00 
 239    0:10   0.00   45.7    50    2.9   355     6.5   789.4    0.00 
 239    0:20   0.00   47.4    47    1.4   113     3.7   789.4    0.00 
 239    0:30   0.00   46.0    51    1.2    14     3.0   789.5    0.00 
 239    0:40   0.00   43.8    52    1.1   123     2.6   789.6    0.00 
 239    0:50   0.00   43.0    54    0.5   133     1.9   789.6    0.00 
 239    1:00   0.00   41.7    53    0.9   146     1.7   789.6    0.00 
 239    1:10   0.00   41.7    57    0.1   211     1.2   789.6    0.00 
 239    1:20   0.00   40.3    55    1.0   158     2.0   789.7    0.00 
 239    1:30   0.00   40.2    58    0.7   129     2.3   789.8    0.00 
 239    1:40   0.00   40.2    57    0.6   220     2.4   789.9    0.00 
 239    1:50   0.00   39.6    57    0.5   193     1.5   789.9    0.00 
 239    2:00   0.00   40.4    57    1.9   240     3.9   789.9    0.00 
 239    2:10   0.00   40.3    64    0.8   303     2.0   789.9    0.00 
 239    2:20   0.00   40.4    62    0.7   179     2.6   789.9    0.00 
 239    2:30   0.00   40.4    62    1.2   227     2.9   789.9    0.00 
 239    2:40   0.00   39.3    60    1.9   204     3.3   789.8    0.00 
 239    2:50   0.00   39.6    67    0.6   301     2.0   789.8    0.00 
 239    3:00   0.00   38.8    61    1.1   149     2.0   789.8    0.00 
 239    3:10   0.00   39.0    62    0.8    95     2.8   789.8    0.00 
 239    3:20   0.00   38.5    62    1.5   186     3.9   789.8    0.00 
 239    3:30   0.00   39.0    61    2.1   219     4.0   789.9    0.00 
 239    3:40   0.00   39.1    67    1.0   269     2.6   789.9    0.00 
 239    3:50   0.00   37.9    66    0.5   119     1.9   790.0    0.00 
 239    4:00   0.00   37.7    65    0.9   198     2.5   790.1    0.00 
 239    4:10   0.00   37.6    64    2.3   244     3.6   790.1    0.00 
 239    4:20   0.00   37.0    69    1.5   278     3.1   790.1    0.00 
 239    4:30   0.00   37.2    68    0.8    10     2.6   790.1    0.00 
 239    4:40   0.00   36.5    69    0.6    63     2.3   790.2    0.00 
 239    4:50   0.00   36.2    70    0.9    70     2.4   790.3    0.00 
 239    5:00   0.00   35.5    68    1.9   151     3.1   790.4    0.00 
 239    5:10   0.00   35.3    70    1.1   136     2.5   790.4    0.00 
 239    5:20   0.00   36.1    69    1.8   233     2.7   790.5    0.00 
 239    5:30   0.00   36.7    70    1.0   236     2.3   790.5    0.00 
 239    5:40   0.01   37.0    71    0.7    34     2.6   790.7    0.00 
 239    5:50   0.04   38.3    69    1.6   331     3.1   790.8    0.00 
 239    6:00   0.07   39.5    63    1.9   228     2.9   790.8    0.00 
 239    6:10   0.10   41.7    62    2.8   327     4.0   790.8    0.00 
 239    6:20   0.13   44.1    56    1.0   286     2.9   790.9    0.00 
 239    6:30   0.16   47.6    51    0.2   332     1.0   790.9    0.00 
 239    6:40   0.20   51.6    45    0.3    87     1.3   790.9    0.00 
 239    6:50   0.23   53.5    43    0.1   160     0.9   790.9    0.00 
 239    7:00   0.27   56.0    40    0.2     3     1.5   790.9    0.00 
 239    7:10   0.30   57.5    39    0.5    48     2.5   790.9    0.00 
 239    7:20   0.34   58.6    37    0.7    72     3.1   790.8    0.00 
 239    7:30   0.37   58.7    38    1.9    54     4.5   790.8    0.00 
 239    7:40   0.41   58.4    40    2.4    50     4.7   790.8    0.00 
 239    7:50   0.44   58.5    39    2.4    53     3.9   790.8    0.00 
 239    8:00   0.48   60.2    38    1.9    61     3.9   790.8    0.00 
 239    8:10   0.48   61.8    35    1.7    53     3.9   790.8    0.00 
 239    8:20   0.54   62.9    34    2.0    61     3.8   790.8    0.00 
 239    8:30   0.57   63.9    33    2.2    64     4.4   791.0    0.00 
 239    8:40   0.60   64.9    32    2.5    51     5.5   791.0    0.00 
 239    8:50   0.63   65.8    32    2.4    59     5.2   791.1    0.00 
 239    9:00   0.66   66.8    31    2.4    59     6.1   791.2    0.00 
 239    9:10   0.69   67.5    29    2.2    57     4.7   791.2    0.00 
 239    9:20   0.72   68.8    27    2.9    69     7.3   791.2    0.00 
 239    9:30   0.74   68.8    26    3.4    74     9.8   791.4    0.00 
 239    9:40   0.77   69.7    25    3.4    52     7.5   791.4    0.00 
 239    9:50   0.79   70.7    24    3.2    71     7.1   791.4    0.00 
 239   10:00   0.81   70.6    25    2.6    38     6.5   791.4    0.00 
 239   10:10   0.83   71.2    23    2.2   133     5.6   791.4    0.00 
 239   10:20   0.85   71.6    24    2.9    68     8.0   791.3    0.00 
 239   10:30   0.86   71.8    24    5.0    61    10.5   791.2    0.00 
 239   10:40   0.88   72.7    21    2.2    48     6.1   791.1    0.00 
 239   10:50   0.90   74.0    21    2.9   108    10.3   791.0    0.00 
 239   11:00   0.91   74.7    21    6.0    86    13.3   791.0    0.00 
 239   11:10   0.91   74.3    20    3.6   108     8.6   790.9    0.00 
 239   11:20   0.92   74.5    21    4.7    16     8.7   790.8    0.00 
 239   11:30   0.93   74.9    22    6.2    66    13.0   790.7    0.00 
 239   11:40   0.93   75.7    20    4.7    69     9.5   790.7    0.00 
 239   11:50   0.93   75.8    20    5.5    85    10.4   790.5    0.00 
 239   12:00   0.94   76.8    19    4.3    36     9.2   790.4    0.00 
 239   12:10   0.94   76.5    18    3.7   296     8.9   790.4    0.00 
 239   12:20   0.93   76.1    18    3.6   286     8.1   790.3    0.00 
 239   12:30   0.93   77.5    18    3.0    23     7.4   790.3    0.00 
 239   12:40   0.92   78.1    19    6.2    55    11.8   790.2    0.00 
 239   12:50   0.91   78.5    19    4.6    28    11.5   790.1    0.00 
 239   13:00   0.90   77.7    19    5.7    47    11.9   790.0    0.00 
 239   13:10   0.89   77.8    19    3.9    56     9.6   790.0    0.00 
 239   13:20   0.88   79.2    18    4.0    48     7.4   789.9    0.00 
 239   13:30   0.87   79.1    18    4.9    60    10.4   789.8    0.00 
 239   13:40   0.85   78.9    17    3.7   170    10.2   789.7    0.00 
 239   13:50   0.83   80.5    18    4.1    45     9.8   789.5    0.00 
 239   14:00   0.81   80.0    17    5.5   353    11.2   789.4    0.00 
 239   14:10   0.79   79.4    16    4.0   204     9.3   789.2    0.00 

Return to SNARL Reserve graphs page.


Western Regional Climate Center,wrcc@dri.edu